AirNav   Air Wisconsin Up To $57,000 Bonus
 
 999 users online  

4MO6 Mark Twain Air Park
Louisiana, Missouri, USA

GOING TO LOUISIANA?


FAA INFORMATION EFFECTIVE 12 SEPTEMBER 2019

Location

FAA Identifier: 4MO6
Lat/Long: 39-26-20.1650N 091-07-05.5020W
39-26.336083N 091-07.091700W
39.4389347,-91.1181950
(estimated)
Elevation: 840 ft. / 256 m (estimated)
Variation: 02E (1985)
From city: 3 miles W of LOUISIANA, MO
Time zone: UTC -5 (UTC -6 during Standard Time)
Zip code: 63353

Airport Operations

Airport use: Private use. Permission required prior to landing
Activation date: 03/1967
Control tower: no
ARTCC: KANSAS CITY CENTER
FSS: COLUMBIA FLIGHT SERVICE STATION
Attendance: UNATNDD
Wind indicator: yes
Segmented circle: no

Airport Communications

WX AWOS-3 at PPQ (20 nm NE): 118.525 (217-285-1428)

Nearby radio navigation aids

VOR radial/distance  VOR name  Freq  Var
UINr158/25.6QUINCY VORTAC113.6005E

Airport Services

Airframe service: NONE
Powerplant service: NONE

Runway Information

Runway 1/19

Dimensions: 2300 x 100 ft. / 701 x 30 m
Surface: turf
RUNWAY 1  RUNWAY 19
Traffic pattern: leftleft

Airport Ownership and Management from official FAA records

Ownership: Privately-owned
Owner: ROBERT P. MC FADDEN
10340 SAVANNAH AVENUE
ST LOUIS, MO 63131
Phone 314-352-5864

Airport Operational Statistics

Aircraft based on the field: 3
Single engine airplanes: 3
    

Additional Remarks

RWY SOFT AFTER RAINS.
FOR CD CTC KANSAS CITY ARTCC AT 913-254-8508.

Instrument Procedures

There are no published instrument procedures at 4MO6.

Some nearby airports with instrument procedures:

H19 - Bowling Green Municipal Airport (6 nm SW)
KPPQ - Pittsfield Penstone Municipal Airport (20 nm NE)
KHAE - Hannibal Regional Airport (23 nm NW)
KUIN - Quincy Regional Airport-Baldwin Field (30 nm N)
K52 - Cpt Ben Smith Airfield - Monroe City (31 nm NW)
 
Loc | Ops | Rwys | IFR | FBO | Links
Com | Nav | Svcs | Stats | Notes

Kansas City Aviation Department
 
Area around 4MO6 (Mark Twain Air Park)
 
Road maps at: MapQuest Bing Google
 
Aerial photo
No photo
 
Sectional chart

 
Airport distance calculator
Flying to Mark Twain Air Park? Find the distance to fly.

From to 4MO6

Sunrise and sunset
Times for 15-Sep-2019
 Local
(UTC-5)
 Zulu
(UTC)
Morning civil twilight06:2011:20
Sunrise06:4711:47
Sunset19:1300:13
Evening civil twilight19:4000:40

Current date and time
Zulu (UTC)  15-Sep-2019 15:21:37
Local (UTC-5)  15-Sep-2019 10:21:37
 
METAR
KPPQ 
19nm NE 
151455Z AUTO 00000KT 10SM CLR 22/19 A3013 RMK AO2 LTG DSNT W T02150191
KUIN 
31nm N 
151454Z AUTO 19008KT 8SM -RA FEW080 BKN110 21/18 A3010 RMK AO2 LTG DSNT W RAE1357B18 SLP186 P0002 60004 T02110183 50005
KI63 
36nm NE 
151455Z AUTO 10005KT 10SM -RA SCT070 BKN095 OVC120 19/18 A3010 RMK AO2 LTG DSNT W T01850180
KMYJ 
37nm SW 
151435Z AUTO 18007KT 10SM CLR 21/18 A3011 RMK AO2 LTG DSNT N AND NW
TAF
KUIN 
31nm N 
151129Z 1512/1612 21010KT P6SM VCTS SCT040CB OVC080 TEMPO 1512/1515 4SM -SHRA BKN040 FM151500 23013G20KT P6SM BKN250 FM160100 VRB04KT P6SM SCT250
NOTAMs
Click for the latest NOTAMs
NOTAMs are issued by the DoD/FAA and will open in a separate window not controlled by AirNav.

 

 
 

Would you like to see your business listed on this page?

 If your business provides an interesting product or service to pilots, flight crews, aircraft, or users of the Mark Twain Air Park, you should consider listing it here.  To start the listing process, click on the button below
 
Add a business
 

Other Pages about Mark Twain Air Park

Update a link
 
Copyright © AirNav, LLC. All rights reserved. Privacy Policy  Contact